createdAt,value
2023-02-07T00:01:24.667Z,17.50
2023-02-07T00:03:53.033Z,18.47
2023-02-07T00:06:23.934Z,17.87
2023-02-07T00:08:51.938Z,17.33
2023-02-07T00:11:21.619Z,16.27
2023-02-07T00:13:54.349Z,20.53
2023-02-07T00:16:23.139Z,20.07
2023-02-07T00:18:52.438Z,19.57
2023-02-07T00:21:23.205Z,19.73
2023-02-07T00:23:51.334Z,21.17
2023-02-07T00:26:21.023Z,21.53
2023-02-07T00:28:50.778Z,20.83
2023-02-07T00:31:20.890Z,20.03
2023-02-07T00:33:50.351Z,20.97
2023-02-07T00:36:20.857Z,20.17
2023-02-07T00:38:49.446Z,22.67
2023-02-07T00:41:19.991Z,24.13
2023-02-07T00:43:49.017Z,17.17
2023-02-07T00:46:18.861Z,17.17
2023-02-07T00:48:47.103Z,20.63
2023-02-07T00:51:15.895Z,20.37
2023-02-07T00:53:44.341Z,21.07
2023-02-07T00:56:13.502Z,18.90
2023-02-07T00:58:41.715Z,18.00
2023-02-07T01:01:09.843Z,18.43
2023-02-07T01:03:39.667Z,15.63
2023-02-07T01:06:08.668Z,16.27
2023-02-07T01:08:38.927Z,17.83
2023-02-07T01:11:10.223Z,16.37
2023-02-07T01:13:38.122Z,17.63
2023-02-07T01:16:06.806Z,18.67
2023-02-07T01:18:34.730Z,15.77
2023-02-07T01:21:03.972Z,19.70
2023-02-07T01:23:31.861Z,17.60
2023-02-07T01:25:59.730Z,18.77
2023-02-07T01:28:27.641Z,17.27
2023-02-07T01:30:55.568Z,17.53
2023-02-07T01:33:23.471Z,16.77
2023-02-07T01:35:51.501Z,19.37
2023-02-07T01:38:20.791Z,16.20
2023-02-07T01:40:48.672Z,18.17
2023-02-07T01:43:19.916Z,19.33
2023-02-07T01:45:47.879Z,21.63
2023-02-07T01:48:21.564Z,21.87
2023-02-07T01:50:52.344Z,18.30
2023-02-07T01:53:25.563Z,21.50
2023-02-07T01:55:56.046Z,19.27
2023-02-07T01:58:24.798Z,18.03
2023-02-07T02:00:53.155Z,16.93
2023-02-07T02:03:21.123Z,19.63
2023-02-07T02:05:54.255Z,17.90
2023-02-07T02:08:24.030Z,20.27
2023-02-07T02:11:14.967Z,16.90
2023-02-07T02:13:50.902Z,18.53
2023-02-07T02:16:26.552Z,18.17
2023-02-07T02:19:24.018Z,18.30
2023-02-07T02:22:19.723Z,19.50
2023-02-07T02:25:10.706Z,17.20
2023-02-07T02:28:02.523Z,21.70
2023-02-07T02:30:56.001Z,18.73
2023-02-07T02:33:41.644Z,18.80
2023-02-07T02:36:14.809Z,20.30
2023-02-07T02:38:51.164Z,19.40
2023-02-07T02:41:22.928Z,23.03
2023-02-07T02:43:55.589Z,17.93
2023-02-07T02:46:27.894Z,19.50
2023-02-07T02:49:01.713Z,22.30
2023-02-07T02:51:30.339Z,19.30
2023-02-07T02:53:59.740Z,24.50
2023-02-07T02:56:48.146Z,18.43
2023-02-07T02:59:37.775Z,20.53
2023-02-07T03:02:22.426Z,19.90
2023-02-07T03:05:21.243Z,18.53
2023-02-07T03:07:58.030Z,18.50
2023-02-07T03:10:33.536Z,14.90
2023-02-07T03:13:11.959Z,17.17
2023-02-07T03:15:49.666Z,16.83
2023-02-07T03:18:23.115Z,18.47
2023-02-07T03:20:56.245Z,17.97
2023-02-07T03:23:24.964Z,18.23
2023-02-07T03:25:53.739Z,19.20
2023-02-07T03:28:23.341Z,19.03
2023-02-07T03:30:55.844Z,21.33
2023-02-07T03:33:26.940Z,19.77
2023-02-07T03:36:03.212Z,20.10
2023-02-07T03:38:31.566Z,20.93
2023-02-07T03:41:06.133Z,20.57
2023-02-07T03:43:36.379Z,21.37
2023-02-07T03:46:04.428Z,18.97
2023-02-07T03:48:32.315Z,16.33
2023-02-07T03:51:01.594Z,16.97
2023-02-07T03:53:29.707Z,22.17
2023-02-07T03:55:57.745Z,19.60
2023-02-07T03:58:25.650Z,21.20
2023-02-07T04:00:53.624Z,22.83
2023-02-07T04:03:21.590Z,21.90
2023-02-07T04:05:50.159Z,21.03
2023-02-07T04:08:19.435Z,22.90
2023-02-07T04:10:57.461Z,22.23
2023-02-07T04:13:25.345Z,22.90
2023-02-07T04:15:53.371Z,21.37
2023-02-07T04:18:21.759Z,21.80
2023-02-07T04:20:49.657Z,24.60
2023-02-07T04:23:19.062Z,23.40
2023-02-07T04:25:46.955Z,25.10
2023-02-07T04:28:14.883Z,26.40
2023-02-07T04:30:42.875Z,23.20
2023-02-07T04:33:10.770Z,24.37
2023-02-07T04:35:38.909Z,24.17
2023-02-07T04:38:06.948Z,23.47
2023-02-07T04:40:36.262Z,25.60
2023-02-07T04:43:04.222Z,25.17
2023-02-07T04:45:32.134Z,21.63
2023-02-07T04:48:00.103Z,21.23
2023-02-07T04:50:28.081Z,22.60
2023-02-07T04:52:56.109Z,24.87
2023-02-07T04:55:24.362Z,23.97
2023-02-07T04:57:53.679Z,35.40
2023-02-07T05:00:21.790Z,29.07
2023-02-07T05:02:49.748Z,26.73
2023-02-07T05:05:17.881Z,25.33
2023-02-07T05:07:45.748Z,24.00
2023-02-07T05:10:13.657Z,25.77
2023-02-07T05:12:41.535Z,24.63
2023-02-07T05:15:11.724Z,25.63
2023-02-07T05:17:39.699Z,27.80
2023-02-07T05:20:08.893Z,28.40
2023-02-07T05:22:36.813Z,27.57
2023-02-07T05:25:05.372Z,27.00
2023-02-07T05:27:33.459Z,22.43
2023-02-07T05:30:01.542Z,28.53
2023-02-07T05:32:48.635Z,26.47
2023-02-07T05:35:16.651Z,24.97
2023-02-07T05:37:44.684Z,25.60
2023-02-07T05:40:13.944Z,24.27
2023-02-07T05:42:42.129Z,27.43
2023-02-07T05:45:10.942Z,22.20
2023-02-07T05:47:40.215Z,21.93
2023-02-07T05:50:08.396Z,22.27
2023-02-07T05:52:36.279Z,26.17
2023-02-07T05:55:04.344Z,24.13
2023-02-07T05:57:32.374Z,24.67
2023-02-07T06:00:00.257Z,23.20
2023-02-07T06:02:28.457Z,24.00
2023-02-07T06:04:57.731Z,28.07
2023-02-07T06:07:25.621Z,23.53
2023-02-07T06:09:53.586Z,24.90
2023-02-07T06:12:21.467Z,23.97
2023-02-07T06:14:49.356Z,24.30
2023-02-07T06:17:17.308Z,21.33
2023-02-07T06:19:45.233Z,25.40
2023-02-07T06:22:14.545Z,25.80
2023-02-07T06:24:42.432Z,23.83
2023-02-07T06:27:10.391Z,23.77
2023-02-07T06:29:38.382Z,24.80
2023-02-07T06:32:06.370Z,25.33
2023-02-07T06:34:34.435Z,26.83
2023-02-07T06:37:02.376Z,28.57
2023-02-07T06:39:31.685Z,27.73
2023-02-07T06:41:59.678Z,28.13
2023-02-07T06:44:27.597Z,25.93
2023-02-07T06:46:55.520Z,27.77
2023-02-07T06:49:23.417Z,27.17
2023-02-07T06:51:51.312Z,28.03
2023-02-07T06:54:19.224Z,25.63
2023-02-07T06:56:48.500Z,27.77
2023-02-07T06:59:16.637Z,26.07
2023-02-07T07:01:44.737Z,23.10
2023-02-07T07:04:12.686Z,29.93
2023-02-07T07:06:40.749Z,26.30
2023-02-07T07:09:08.647Z,26.20
2023-02-07T07:11:39.067Z,25.60
2023-02-07T07:14:08.307Z,25.27
2023-02-07T07:16:36.418Z,26.63
2023-02-07T07:19:04.598Z,31.20
2023-02-07T07:21:32.647Z,31.43
2023-02-07T07:24:00.654Z,32.73
2023-02-07T07:26:39.499Z,31.07
2023-02-07T07:29:16.218Z,75.30
2023-02-07T07:31:44.159Z,100.50
2023-02-07T07:34:12.085Z,42.43
2023-02-07T07:36:40.098Z,70.27
2023-02-07T07:39:08.977Z,33.90
2023-02-07T07:41:36.873Z,23.97
2023-02-07T07:44:05.111Z,22.97
2023-02-07T07:46:34.628Z,24.03
2023-02-07T07:49:02.683Z,21.53
2023-02-07T07:51:30.604Z,21.10
2023-02-07T07:53:58.559Z,21.07
2023-02-07T07:56:29.360Z,25.87
2023-02-07T07:58:57.299Z,21.43
2023-02-07T08:01:25.675Z,21.37
2023-02-07T08:03:55.121Z,20.40
2023-02-07T08:06:23.007Z,20.93
2023-02-07T08:08:51.003Z,21.70
2023-02-07T08:11:19.076Z,22.17
2023-02-07T08:13:46.964Z,21.30
2023-02-07T08:16:14.878Z,21.17
2023-02-07T08:18:43.009Z,22.43
2023-02-07T08:21:12.508Z,23.63
2023-02-07T08:23:40.602Z,20.80
2023-02-07T08:26:08.908Z,21.83
2023-02-07T08:28:37.134Z,21.73
2023-02-07T08:31:06.777Z,25.80
2023-02-07T08:33:34.663Z,20.50
2023-02-07T08:36:05.579Z,18.23
2023-02-07T08:38:35.438Z,18.33
2023-02-07T08:41:03.351Z,19.63
2023-02-07T08:43:31.331Z,21.63
2023-02-07T08:46:00.749Z,29.90
2023-02-07T08:48:29.608Z,43.60
2023-02-07T08:50:58.582Z,42.00
2023-02-07T08:53:26.469Z,41.83
2023-02-07T08:55:55.732Z,47.47
2023-02-07T08:58:23.626Z,21.37
2023-02-07T09:00:51.605Z,24.27
2023-02-07T09:03:19.628Z,19.23
2023-02-07T09:05:47.532Z,20.10
2023-02-07T09:08:15.454Z,19.20
2023-02-07T09:10:44.911Z,20.10
2023-02-07T09:13:15.859Z,20.83
2023-02-07T09:15:43.824Z,19.70
2023-02-07T09:18:11.760Z,19.67
2023-02-07T09:20:40.349Z,18.60
2023-02-07T09:23:24.810Z,18.87
2023-02-07T09:25:54.968Z,19.03
2023-02-07T09:28:24.300Z,18.57
2023-02-07T09:30:52.718Z,18.50
2023-02-07T09:33:23.258Z,21.10
2023-02-07T09:35:51.488Z,23.67
2023-02-07T09:38:21.450Z,20.77
2023-02-07T09:40:52.324Z,28.93
2023-02-07T09:43:38.023Z,20.43
2023-02-07T09:46:13.532Z,21.37
2023-02-07T09:48:48.144Z,23.17
2023-02-07T09:51:18.903Z,19.67
2023-02-07T09:53:51.866Z,20.43
2023-02-07T09:56:20.945Z,19.33
2023-02-07T09:58:58.740Z,20.43
2023-02-07T10:01:31.013Z,24.20
2023-02-07T10:04:09.434Z,20.63
2023-02-07T10:06:39.897Z,20.57
2023-02-07T10:09:15.126Z,20.77
2023-02-07T10:11:50.992Z,19.03
2023-02-07T10:14:38.468Z,20.17
2023-02-07T10:17:32.247Z,20.37
2023-02-07T10:20:14.320Z,19.47
2023-02-07T10:22:51.940Z,20.37
2023-02-07T10:25:33.792Z,21.07
2023-02-07T10:28:15.638Z,22.83
2023-02-07T10:30:50.614Z,20.43
2023-02-07T10:33:20.680Z,19.93
2023-02-07T10:35:49.605Z,19.43
2023-02-07T10:38:26.935Z,20.73
2023-02-07T10:41:02.376Z,21.60
2023-02-07T10:43:32.675Z,19.57
2023-02-07T10:46:06.553Z,21.47
2023-02-07T10:48:35.274Z,21.33
2023-02-07T10:51:05.064Z,26.03
2023-02-07T10:53:54.597Z,22.93
2023-02-07T10:56:25.097Z,20.27
2023-02-07T10:58:54.274Z,25.73
2023-02-07T11:01:25.981Z,27.57
2023-02-07T11:03:54.163Z,25.47
2023-02-07T11:06:28.384Z,21.80
2023-02-07T11:09:13.602Z,19.37
2023-02-07T11:11:43.998Z,20.30
2023-02-07T11:14:17.770Z,25.07
2023-02-07T11:16:47.131Z,23.17
2023-02-07T11:19:20.458Z,23.10
2023-02-07T11:21:50.275Z,22.57
2023-02-07T11:24:21.366Z,19.30
2023-02-07T11:26:55.901Z,19.73
2023-02-07T11:29:26.576Z,20.53
2023-02-07T11:32:00.209Z,20.43
2023-02-07T11:34:40.932Z,19.17
2023-02-07T11:37:27.993Z,27.70
2023-02-07T11:39:57.936Z,28.37
2023-02-07T11:42:31.856Z,20.27
2023-02-07T11:45:05.168Z,17.67
2023-02-07T11:47:38.185Z,17.80
2023-02-07T11:50:08.803Z,18.27
2023-02-07T11:52:40.637Z,17.30
2023-02-07T11:55:12.058Z,17.50
2023-02-07T11:57:40.286Z,17.37
2023-02-07T12:00:19.570Z,17.23
2023-02-07T12:02:52.784Z,16.57
2023-02-07T12:05:23.432Z,16.03
2023-02-07T12:07:54.200Z,16.93
2023-02-07T12:10:24.452Z,15.87
2023-02-07T12:12:57.655Z,15.67
2023-02-07T12:15:33.881Z,17.10
2023-02-07T12:18:11.728Z,14.97
2023-02-07T12:20:43.361Z,16.73
2023-02-07T12:23:40.915Z,14.83
2023-02-07T12:26:14.983Z,14.83
2023-02-07T12:28:49.781Z,15.67
2023-02-07T12:31:27.086Z,14.80
2023-02-07T12:34:02.628Z,14.93
2023-02-07T12:36:35.490Z,14.90
2023-02-07T12:39:12.772Z,15.97
2023-02-07T12:41:45.670Z,14.50
2023-02-07T12:44:23.808Z,15.47
2023-02-07T12:47:02.240Z,15.50
2023-02-07T12:49:55.447Z,15.77
2023-02-07T12:52:38.231Z,14.47
2023-02-07T12:55:20.657Z,14.97
2023-02-07T12:58:01.200Z,14.63
2023-02-07T13:00:34.449Z,14.20
2023-02-07T13:03:13.027Z,16.13
2023-02-07T13:06:04.965Z,15.30
2023-02-07T13:08:43.866Z,15.70
2023-02-07T13:11:25.422Z,16.03
2023-02-07T13:14:06.093Z,15.13
2023-02-07T13:16:42.059Z,15.87
2023-02-07T13:19:16.128Z,15.30
2023-02-07T13:21:53.557Z,14.93
2023-02-07T13:24:23.823Z,15.00
2023-02-07T13:26:55.668Z,16.73
2023-02-07T13:29:24.782Z,17.33
2023-02-07T13:31:56.422Z,15.57
2023-02-07T13:34:27.379Z,15.23
2023-02-07T13:37:00.798Z,14.83
2023-02-07T13:39:43.721Z,13.70
2023-02-07T13:42:21.715Z,13.67
2023-02-07T13:44:57.655Z,18.37
2023-02-07T13:47:51.764Z,25.63
2023-02-07T13:50:30.246Z,15.50
2023-02-07T13:53:06.691Z,14.17
2023-02-07T13:55:38.185Z,13.60
2023-02-07T13:58:43.962Z,13.77
2023-02-07T14:01:17.572Z,13.70
2023-02-07T14:04:02.509Z,13.53
2023-02-07T14:06:33.654Z,15.00
2023-02-07T14:09:17.224Z,13.53
2023-02-07T14:11:48.019Z,14.73
2023-02-07T14:14:26.369Z,15.57
2023-02-07T14:16:56.715Z,13.47
2023-02-07T14:19:50.862Z,13.87
2023-02-07T14:22:22.097Z,13.77
2023-02-07T14:25:14.246Z,13.33
2023-02-07T14:27:44.627Z,15.27
2023-02-07T14:30:21.146Z,13.93
2023-02-07T14:33:13.007Z,16.17
2023-02-07T14:36:04.076Z,14.70
2023-02-07T14:38:36.069Z,16.60
2023-02-07T14:41:11.478Z,13.50
2023-02-07T14:43:54.366Z,13.90
2023-02-07T14:46:37.532Z,14.83
2023-02-07T14:49:09.406Z,13.37
2023-02-07T14:51:43.906Z,13.87
2023-02-07T14:54:20.077Z,14.80
2023-02-07T14:57:07.884Z,14.83
2023-02-07T14:59:40.141Z,12.80
2023-02-07T15:02:30.600Z,13.73
2023-02-07T15:04:59.270Z,13.00
2023-02-07T15:07:27.287Z,12.83
2023-02-07T15:09:55.154Z,14.10
2023-02-07T15:12:28.414Z,15.13
2023-02-07T15:14:58.104Z,13.93
2023-02-07T15:17:39.363Z,14.10
2023-02-07T15:20:16.693Z,15.10
2023-02-07T15:22:48.629Z,15.33
2023-02-07T15:25:19.762Z,13.23
2023-02-07T15:28:06.538Z,12.50
2023-02-07T15:30:37.533Z,12.87
2023-02-07T15:33:12.334Z,13.07
2023-02-07T15:35:43.312Z,16.40
2023-02-07T15:38:18.134Z,14.20
2023-02-07T15:40:46.105Z,12.87
2023-02-07T15:43:27.964Z,16.23
2023-02-07T15:46:06.178Z,12.63
2023-02-07T15:48:35.029Z,14.13
2023-02-07T15:51:05.885Z,14.90
2023-02-07T15:53:34.205Z,14.40
2023-02-07T15:56:06.793Z,15.37
2023-02-07T15:58:37.880Z,14.70
2023-02-07T16:01:08.247Z,15.80
2023-02-07T16:03:38.681Z,14.03
2023-02-07T16:06:14.752Z,14.90
2023-02-07T16:08:44.622Z,14.80
2023-02-07T16:11:36.176Z,14.07
2023-02-07T16:14:15.727Z,13.23
2023-02-07T16:16:49.406Z,14.60
2023-02-07T16:19:19.544Z,13.77
2023-02-07T16:21:53.353Z,13.43
2023-02-07T16:24:24.287Z,13.77
2023-02-07T16:26:52.370Z,13.20
2023-02-07T16:29:24.236Z,11.27
2023-02-07T16:31:53.251Z,12.50
2023-02-07T16:34:22.327Z,11.53
2023-02-07T16:36:52.192Z,12.53
2023-02-07T16:39:20.231Z,13.33
2023-02-07T16:41:51.200Z,13.03
2023-02-07T16:44:24.262Z,13.23
2023-02-07T16:46:52.743Z,14.60
2023-02-07T16:49:23.433Z,14.37
2023-02-07T16:51:51.558Z,16.83
2023-02-07T16:54:19.817Z,15.17
2023-02-07T16:56:51.466Z,15.43
2023-02-07T16:59:22.699Z,14.07
2023-02-07T17:01:52.492Z,14.90
2023-02-07T17:04:20.972Z,16.50
2023-02-07T17:06:49.462Z,15.10
2023-02-07T17:09:18.988Z,14.83
2023-02-07T17:11:47.147Z,15.20
2023-02-07T17:14:15.518Z,16.20
2023-02-07T17:16:45.430Z,19.33
2023-02-07T17:19:15.351Z,17.43
2023-02-07T17:21:43.398Z,15.73
2023-02-07T17:24:12.176Z,16.80
2023-02-07T17:26:43.585Z,14.97
2023-02-07T17:29:13.424Z,16.27
2023-02-07T17:31:41.951Z,14.77
2023-02-07T17:34:11.596Z,16.80
2023-02-07T17:36:41.774Z,17.07
2023-02-07T17:39:13.324Z,15.27
2023-02-07T17:41:41.251Z,14.97
2023-02-07T17:44:09.195Z,14.63
2023-02-07T17:46:37.307Z,13.17
2023-02-07T17:49:05.403Z,12.80
2023-02-07T17:51:34.667Z,13.10
2023-02-07T17:54:02.557Z,12.90
2023-02-07T17:56:32.142Z,14.90
2023-02-07T17:59:03.339Z,15.40
2023-02-07T18:01:31.803Z,14.47
2023-02-07T18:04:00.222Z,16.37
2023-02-07T18:06:30.633Z,16.17
2023-02-07T18:09:00.329Z,17.40
2023-02-07T18:11:28.830Z,17.60
2023-02-07T18:13:57.675Z,18.60
2023-02-07T18:16:27.440Z,16.60
2023-02-07T18:18:57.271Z,18.80
2023-02-07T18:21:26.041Z,16.97
2023-02-07T18:23:54.095Z,18.47
2023-02-07T18:26:23.939Z,20.03
2023-02-07T18:28:51.926Z,18.50
2023-02-07T18:31:24.118Z,18.93
2023-02-07T18:33:53.700Z,21.37
2023-02-07T18:36:23.841Z,19.10
2023-02-07T18:38:51.817Z,23.77
2023-02-07T18:41:23.544Z,30.13
2023-02-07T18:43:52.945Z,51.07
2023-02-07T18:46:22.319Z,45.90
2023-02-07T18:48:55.354Z,48.87
2023-02-07T18:51:27.331Z,54.60
2023-02-07T18:53:55.927Z,45.23
2023-02-07T18:56:26.021Z,42.50
2023-02-07T18:58:56.895Z,40.57
2023-02-07T19:01:26.391Z,36.93
2023-02-07T19:03:56.338Z,32.90
2023-02-07T19:06:25.570Z,33.10
2023-02-07T19:08:53.962Z,29.77
2023-02-07T19:11:21.884Z,28.77
2023-02-07T19:13:50.345Z,27.73
2023-02-07T19:16:21.944Z,29.03
2023-02-07T19:18:50.062Z,26.07
2023-02-07T19:21:23.772Z,30.00
2023-02-07T19:23:51.725Z,26.97
2023-02-07T19:26:24.295Z,25.87
2023-02-07T19:28:53.423Z,27.90
2023-02-07T19:31:24.677Z,22.23
2023-02-07T19:33:53.485Z,26.43
2023-02-07T19:36:24.492Z,25.83
2023-02-07T19:38:54.082Z,26.83
2023-02-07T19:41:22.278Z,26.90
2023-02-07T19:43:50.172Z,29.63
2023-02-07T19:46:19.099Z,28.67
2023-02-07T19:48:49.049Z,29.83
2023-02-07T19:51:19.270Z,30.93
2023-02-07T19:53:50.221Z,31.10
2023-02-07T19:56:19.352Z,33.77
2023-02-07T19:58:49.014Z,36.60
2023-02-07T20:01:17.381Z,34.43
2023-02-07T20:03:50.843Z,39.13
2023-02-07T20:06:22.644Z,30.80
2023-02-07T20:08:50.812Z,33.03
2023-02-07T20:11:20.676Z,33.33
2023-02-07T20:13:51.272Z,32.03
2023-02-07T20:16:22.070Z,32.90
2023-02-07T20:18:52.100Z,32.90
2023-02-07T20:21:23.427Z,33.53
2023-02-07T20:23:51.731Z,32.30
2023-02-07T20:26:21.742Z,33.50
2023-02-07T20:28:50.892Z,30.53
2023-02-07T20:31:23.429Z,28.87
2023-02-07T20:33:51.842Z,27.43
2023-02-07T20:36:22.086Z,29.43
2023-02-07T20:38:50.066Z,27.47
2023-02-07T20:41:29.145Z,27.10
2023-02-07T20:43:58.851Z,28.17
2023-02-07T20:46:28.398Z,25.77
2023-02-07T20:48:58.356Z,24.33
2023-02-07T20:51:28.444Z,24.77
2023-02-07T20:53:57.860Z,26.27
2023-02-07T20:56:26.374Z,26.00
2023-02-07T20:58:55.323Z,26.63
2023-02-07T21:01:25.665Z,26.77
2023-02-07T21:03:55.167Z,27.63
2023-02-07T21:06:24.180Z,28.30
2023-02-07T21:09:00.165Z,29.37
2023-02-07T21:11:29.547Z,28.23
2023-02-07T21:13:57.457Z,27.77
2023-02-07T21:16:25.348Z,29.77
2023-02-07T21:18:53.625Z,30.87
2023-02-07T21:21:21.755Z,25.70
2023-02-07T21:23:49.681Z,29.63
2023-02-07T21:26:20.115Z,29.20
2023-02-07T21:28:48.147Z,32.57
2023-02-07T21:31:17.778Z,29.93
2023-02-07T21:33:46.067Z,27.23
2023-02-07T21:36:16.782Z,25.33
2023-02-07T21:38:46.150Z,25.30
2023-02-07T21:41:15.716Z,23.20
2023-02-07T21:43:45.001Z,22.13
2023-02-07T21:46:17.983Z,25.70
2023-02-07T21:48:47.782Z,23.53
2023-02-07T21:51:18.821Z,21.80
2023-02-07T21:53:47.247Z,21.27
2023-02-07T21:56:16.870Z,18.47
2023-02-07T21:58:46.227Z,20.23
2023-02-07T22:01:17.322Z,19.07
2023-02-07T22:03:46.668Z,22.03
2023-02-07T22:06:16.506Z,23.37
2023-02-07T22:08:48.455Z,23.83
2023-02-07T22:11:17.121Z,22.27
2023-02-07T22:13:48.134Z,22.60
2023-02-07T22:16:18.075Z,22.53
2023-02-07T22:18:46.193Z,21.03
2023-02-07T22:21:16.860Z,22.73
2023-02-07T22:23:45.436Z,23.30
2023-02-07T22:26:15.022Z,22.33
2023-02-07T22:28:43.467Z,22.63
2023-02-07T22:31:15.803Z,22.80
2023-02-07T22:33:43.970Z,22.27
2023-02-07T22:36:14.147Z,17.00
2023-02-07T22:38:43.031Z,21.57
2023-02-07T22:41:10.995Z,20.83
2023-02-07T22:43:40.302Z,19.20
2023-02-07T22:46:10.293Z,20.77
2023-02-07T22:48:39.718Z,18.40
2023-02-07T22:51:20.312Z,18.03
2023-02-07T22:53:49.459Z,18.23
2023-02-07T22:56:17.516Z,19.17
2023-02-07T22:58:45.916Z,15.07
2023-02-07T23:01:21.611Z,16.07
2023-02-07T23:03:51.771Z,14.87
2023-02-07T23:06:19.962Z,14.53
2023-02-07T23:08:48.140Z,16.93
2023-02-07T23:11:18.350Z,14.53
2023-02-07T23:13:46.872Z,16.50
2023-02-07T23:16:16.686Z,15.57
2023-02-07T23:18:44.735Z,15.40
2023-02-07T23:21:17.421Z,13.57
2023-02-07T23:23:45.574Z,13.53
2023-02-07T23:26:15.785Z,14.83
2023-02-07T23:28:43.940Z,15.73
2023-02-07T23:31:15.155Z,15.53
2023-02-07T23:33:43.614Z,15.50
2023-02-07T23:36:11.801Z,17.43
2023-02-07T23:38:41.513Z,19.77
2023-02-07T23:41:10.007Z,26.23
2023-02-07T23:43:38.498Z,20.87
2023-02-07T23:46:07.269Z,19.23
2023-02-07T23:48:37.777Z,17.87
2023-02-07T23:51:07.973Z,17.87
2023-02-07T23:53:36.287Z,17.57
2023-02-07T23:56:07.469Z,19.20
2023-02-07T23:58:35.769Z,19.70
